This is the latest recevied weather packets stored in our database for station/object DO1BDB-12. If no packets are shown the sender has not sent any weather packets the latest 10 day(s).
| Time | Temp. | Humidity | Pressure | Rain* | Wind** | Luminosity | Snow |
|---|---|---|---|---|---|---|---|
| 1777570596 | 17.78° C | 36% | 102.9 hPa | - | - | - | - |
| 1777570530 | 17.78° C | 37% | 102.9 hPa | - | - | - | - |
| 1777570464 | 17.78° C | 37% | 103 hPa | - | - | - | - |
| 1777570398 | 17.78° C | 37% | 103 hPa | - | - | - | - |
| 1777570332 | 17.78° C | 37% | 102.9 hPa | - | - | - | - |
| 1777570267 | 18.33° C | 37% | 102.9 hPa | - | - | - | - |
| 1777570201 | 18.33° C | 36% | 102.9 hPa | - | - | - | - |
| 1777570135 | 18.33° C | 39% | 102.9 hPa | - | - | - | - |
| 1777570069 | 18.89° C | 38% | 103 hPa | - | - | - | - |
| 1777570003 | 18.89° C | 39% | 102.9 hPa | - | - | - | - |
| 1777569937 | 18.89° C | 38% | 102.9 hPa | - | - | - | - |
| 1777569871 | 18.89° C | 38% | 102.9 hPa | - | - | - | - |
| 1777569806 | 18.33° C | 38% | 102.9 hPa | - | - | - | - |
| 1777569740 | 18.89° C | 36% | 102.9 hPa | - | - | - | - |
| 1777569674 | 18.89° C | 36% | 102.9 hPa | - | - | - | - |
| 1777569608 | 19.44° C | 36% | 102.9 hPa | - | - | - | - |
| 1777569542 | 20° C | 35% | 102.9 hPa | - | - | - | - |
| 1777569476 | 20.56° C | 34% | 102.9 hPa | - | - | - | - |
| 1777569411 | 21.11° C | 33% | 102.9 hPa | - | - | - | - |
| 1777569345 | 20.56° C | 34% | 102.9 hPa | - | - | - | - |
| 1777569279 | 20° C | 36% | 102.9 hPa | - | - | - | - |
| 1777569213 | 20° C | 34% | 102.9 hPa | - | - | - | - |
| 1777569147 | 19.44° C | 36% | 102.9 hPa | - | - | - | - |
| 1777569082 | 19.44° C | 36% | 102.9 hPa | - | - | - | - |
| 1777569015 | 19.44° C | 36% | 102.9 hPa | - | - | - | - |
* Rain since midnight (hover to see other rain measurements)
** Current wind speed in m/s (hover to see current wind gust speed)